Costa Mediterranea — IBCF — position and weather

sailwx.info

Track history (hours):
 
Tides and Currents Weather Stations Pressure Air Temp Water Temp Dewpoint Dewpoint Depression Visibility Wind Speed Wind Dir Waves Ship Positions

Costa Mediterranea

Last reported at 2020-Apr-05 15:58 UTC. Time now 2020-Apr-06 18:04 UTC.
Position N 36°39' E 013°08'.

Length 293 m; draft 8 m.

Type: Passenger vessel. MMSI: 247088200.

Date/timePositionNaut miles runAvg speedWind from/ knotsBaromVisibWave heightAir tempDewpointWater temp
2020-Apr-05 15:58N 36°39' E 013°08'1111.3
2020-Apr-05 14:59N 36°36' E 013°22'611.6
2020-Apr-05 14:30N 36°35' E 013°28'1510.5
2020-Apr-05 13:04N 36°33' E 013°47'111.8
2020-Apr-05 12:59N 36°34' E 013°47'2412.1
2020-Apr-05 10:58N 36°42' E 013°18'7 1.9
2020-Apr-05 07:20N 36°38' E 013°11'31 1.5
2020-Apr-04 11:30N 36°31' E 013°48'611.7
2020-Apr-04 11:00N 36°37' E 013°48'50211.0
2020-Apr-02 13:25N 34°35' E 023°47'1812.8
2020-Apr-02 11:59N 34°32' E 024°09'1212.7
2020-Apr-02 11:00N 34°32' E 024°24'712.7
2020-Apr-02 10:29N 34°31' E 024°32'  
Track history (hours):
 
Tides and Currents Weather Stations Pressure Air Temp Water Temp Dewpoint Dewpoint Depression Visibility Wind Speed Wind Dir Waves Ship Positions

Costa Mediterranea

Last reported at 2020-Apr-05 15:58 UTC. Time now 2020-Apr-06 18:04 UTC.
Position N 36°39' E 013°08'.

Length 293 m; draft 8 m.

Type: Passenger vessel. MMSI: 247088200.

Date/timePositionNaut miles runAvg speedWind from/ knotsBaromVisibWave heightAir tempDewpointWater temp
2020-Apr-05 15:58N 36°39' E 013°08'1111.3
2020-Apr-05 14:59N 36°36' E 013°22'611.6
2020-Apr-05 14:30N 36°35' E 013°28'1510.5
2020-Apr-05 13:04N 36°33' E 013°47'111.8
2020-Apr-05 12:59N 36°34' E 013°47'2412.1
2020-Apr-05 10:58N 36°42' E 013°18'7 1.9
2020-Apr-05 07:20N 36°38' E 013°11'31 1.5
2020-Apr-04 11:30N 36°31' E 013°48'611.7
2020-Apr-04 11:00N 36°37' E 013°48'50211.0
2020-Apr-02 13:25N 34°35' E 023°47'1812.8
2020-Apr-02 11:59N 34°32' E 024°09'1212.7
2020-Apr-02 11:00N 34°32' E 024°24'712.7
2020-Apr-02 10:29N 34°31' E 024°32'  

Dump ship's entire track history